<?xml version="1.0" encoding="UTF-8" standalone="no" ?>
<gpx xmlns="http://www.topografix.com/GPX/1/1" xmlns:xsi="http://www.w3.org/2001/XMLSchema-instance" xsi:schemaLocation="http://www.topografix.com/GPX/1/1 http://www.topografix.com/GPX/1/1/gpx.xsd" version="1.1" creator="VisuGPX - https://www.visugpx.com">
  <metadata>
    <name>Sentier de découverte du petit belvédère du Mont Viso</name>
    <desc><![CDATA[Séjour Vars tres belle rando familiale ds le parc naturel de Ristolas  Queyras avec sentier découverte et  arrivée au pied du Mont Viso point culminant des Alpes du Sud]]></desc>
  </metadata>
  <trk>
    <name><![CDATA[Sentier de découverte du petit belvédère du Mont Viso]]></name>
    <trkseg>
      <trkpt lat="44.73663" lon="6.99607">
        <ele>1789</ele>
        <time>2021-05-18T09:51:51+02:00</time>
      </trkpt>
      <trkpt lat="44.73628" lon="6.99667">
        <ele>1791</ele>
        <time>2021-05-18T09:51:56+02:00</time>
      </trkpt>
      <trkpt lat="44.73588" lon="6.9974">
        <ele>1795</ele>
        <time>2021-05-18T09:52:01+02:00</time>
      </trkpt>
      <trkpt lat="44.73543" lon="6.99733">
        <ele>1805</ele>
        <time>2021-05-18T09:52:06+02:00</time>
      </trkpt>
      <trkpt lat="44.73505" lon="6.99793">
        <ele>1804</ele>
        <time>2021-05-18T09:52:11+02:00</time>
      </trkpt>
      <trkpt lat="44.735" lon="6.99869">
        <ele>1799</ele>
        <time>2021-05-18T09:52:16+02:00</time>
      </trkpt>
      <trkpt lat="44.73536" lon="6.99893">
        <ele>1799</ele>
        <time>2021-05-18T09:52:21+02:00</time>
      </trkpt>
      <trkpt lat="44.73585" lon="6.99879">
        <ele>1799</ele>
        <time>2021-05-18T09:52:26+02:00</time>
      </trkpt>
      <trkpt lat="44.73555" lon="6.99942">
        <ele>1807</ele>
        <time>2021-05-18T09:52:31+02:00</time>
      </trkpt>
      <trkpt lat="44.73583" lon="6.99999">
        <ele>1815</ele>
        <time>2021-05-18T09:52:36+02:00</time>
      </trkpt>
      <trkpt lat="44.73533" lon="7.00006">
        <ele>1816</ele>
        <time>2021-05-18T09:52:41+02:00</time>
      </trkpt>
      <trkpt lat="44.73588" lon="7.00049">
        <ele>1828</ele>
        <time>2021-05-18T09:52:46+02:00</time>
      </trkpt>
      <trkpt lat="44.73614" lon="7.00079">
        <ele>1834</ele>
        <time>2021-05-18T09:52:51+02:00</time>
      </trkpt>
      <trkpt lat="44.7354" lon="7.00105">
        <ele>1843</ele>
        <time>2021-05-18T09:52:56+02:00</time>
      </trkpt>
      <trkpt lat="44.73489" lon="7.00105">
        <ele>1852</ele>
        <time>2021-05-18T09:53:01+02:00</time>
      </trkpt>
      <trkpt lat="44.73451" lon="7.00075">
        <ele>1846</ele>
        <time>2021-05-18T09:53:06+02:00</time>
      </trkpt>
      <trkpt lat="44.73392" lon="7.00105">
        <ele>1863</ele>
        <time>2021-05-18T09:53:11+02:00</time>
      </trkpt>
      <trkpt lat="44.73335" lon="7.00132">
        <ele>1875</ele>
        <time>2021-05-18T09:53:16+02:00</time>
      </trkpt>
      <trkpt lat="44.73288" lon="7.00128">
        <ele>1868</ele>
        <time>2021-05-18T09:53:21+02:00</time>
      </trkpt>
      <trkpt lat="44.73222" lon="7.00158">
        <ele>1873</ele>
        <time>2021-05-18T09:53:26+02:00</time>
      </trkpt>
      <trkpt lat="44.73156" lon="7.00158">
        <ele>1882</ele>
        <time>2021-05-18T09:53:31+02:00</time>
      </trkpt>
      <trkpt lat="44.73101" lon="7.00182">
        <ele>1892</ele>
        <time>2021-05-18T09:53:36+02:00</time>
      </trkpt>
      <trkpt lat="44.7305" lon="7.00218">
        <ele>1901</ele>
        <time>2021-05-18T09:53:41+02:00</time>
      </trkpt>
      <trkpt lat="44.72991" lon="7.00255">
        <ele>1914</ele>
        <time>2021-05-18T09:53:46+02:00</time>
      </trkpt>
      <trkpt lat="44.7296" lon="7.00298">
        <ele>1918</ele>
        <time>2021-05-18T09:53:51+02:00</time>
      </trkpt>
      <trkpt lat="44.72915" lon="7.00358">
        <ele>1924</ele>
        <time>2021-05-18T09:53:56+02:00</time>
      </trkpt>
      <trkpt lat="44.72903" lon="7.00311">
        <ele>1913</ele>
        <time>2021-05-18T09:54:01+02:00</time>
      </trkpt>
      <trkpt lat="44.72917" lon="7.00238">
        <ele>1902</ele>
        <time>2021-05-18T09:54:06+02:00</time>
      </trkpt>
      <trkpt lat="44.72946" lon="7.00195">
        <ele>1892</ele>
        <time>2021-05-18T09:54:11+02:00</time>
      </trkpt>
      <trkpt lat="44.72986" lon="7.00168">
        <ele>1890</ele>
        <time>2021-05-18T09:54:16+02:00</time>
      </trkpt>
      <trkpt lat="44.73005" lon="7.00118">
        <ele>1896</ele>
        <time>2021-05-18T09:54:21+02:00</time>
      </trkpt>
      <trkpt lat="44.72974" lon="7.00082">
        <ele>1909</ele>
        <time>2021-05-18T09:54:26+02:00</time>
      </trkpt>
      <trkpt lat="44.72917" lon="7.00092">
        <ele>1917</ele>
        <time>2021-05-18T09:54:31+02:00</time>
      </trkpt>
      <trkpt lat="44.7288" lon="7.00105">
        <ele>1925</ele>
        <time>2021-05-18T09:54:36+02:00</time>
      </trkpt>
      <trkpt lat="44.72856" lon="7.00055">
        <ele>1940</ele>
        <time>2021-05-18T09:54:41+02:00</time>
      </trkpt>
      <trkpt lat="44.72849" lon="6.99989">
        <ele>1950</ele>
        <time>2021-05-18T09:54:46+02:00</time>
      </trkpt>
      <trkpt lat="44.72858" lon="6.99922">
        <ele>1961</ele>
        <time>2021-05-18T09:54:51+02:00</time>
      </trkpt>
      <trkpt lat="44.72882" lon="6.99839">
        <ele>1972</ele>
        <time>2021-05-18T09:54:56+02:00</time>
      </trkpt>
      <trkpt lat="44.72922" lon="6.99816">
        <ele>1963</ele>
        <time>2021-05-18T09:55:01+02:00</time>
      </trkpt>
      <trkpt lat="44.72972" lon="6.9973">
        <ele>1974</ele>
        <time>2021-05-18T09:55:06+02:00</time>
      </trkpt>
      <trkpt lat="44.73024" lon="6.99647">
        <ele>1987</ele>
        <time>2021-05-18T09:55:11+02:00</time>
      </trkpt>
      <trkpt lat="44.7305" lon="6.9968">
        <ele>1967</ele>
        <time>2021-05-18T09:55:16+02:00</time>
      </trkpt>
      <trkpt lat="44.73057" lon="6.9974">
        <ele>1945</ele>
        <time>2021-05-18T09:55:21+02:00</time>
      </trkpt>
      <trkpt lat="44.73066" lon="6.99796">
        <ele>1927</ele>
        <time>2021-05-18T09:55:26+02:00</time>
      </trkpt>
      <trkpt lat="44.73104" lon="6.99829">
        <ele>1910</ele>
        <time>2021-05-18T09:55:31+02:00</time>
      </trkpt>
      <trkpt lat="44.73137" lon="6.99859">
        <ele>1897</ele>
        <time>2021-05-18T09:55:36+02:00</time>
      </trkpt>
      <trkpt lat="44.73163" lon="6.99893">
        <ele>1899</ele>
        <time>2021-05-18T09:55:41+02:00</time>
      </trkpt>
      <trkpt lat="44.73172" lon="6.99946">
        <ele>1891</ele>
        <time>2021-05-18T09:55:46+02:00</time>
      </trkpt>
      <trkpt lat="44.73118" lon="6.99979">
        <ele>1894</ele>
        <time>2021-05-18T09:55:51+02:00</time>
      </trkpt>
      <trkpt lat="44.73078" lon="7.00002">
        <ele>1895</ele>
        <time>2021-05-18T09:55:56+02:00</time>
      </trkpt>
      <trkpt lat="44.73054" lon="7.00045">
        <ele>1893</ele>
        <time>2021-05-18T09:56:01+02:00</time>
      </trkpt>
      <trkpt lat="44.73024" lon="7.00105">
        <ele>1895</ele>
        <time>2021-05-18T09:56:06+02:00</time>
      </trkpt>
      <trkpt lat="44.73073" lon="7.00062">
        <ele>1887</ele>
        <time>2021-05-18T09:56:11+02:00</time>
      </trkpt>
      <trkpt lat="44.73111" lon="7.00015">
        <ele>1888</ele>
        <time>2021-05-18T09:56:16+02:00</time>
      </trkpt>
      <trkpt lat="44.73151" lon="6.99992">
        <ele>1891</ele>
        <time>2021-05-18T09:56:21+02:00</time>
      </trkpt>
      <trkpt lat="44.73201" lon="6.99936">
        <ele>1885</ele>
        <time>2021-05-18T09:56:26+02:00</time>
      </trkpt>
      <trkpt lat="44.73255" lon="6.99949">
        <ele>1873</ele>
        <time>2021-05-18T09:56:31+02:00</time>
      </trkpt>
      <trkpt lat="44.73278" lon="6.99879">
        <ele>1863</ele>
        <time>2021-05-18T09:56:36+02:00</time>
      </trkpt>
      <trkpt lat="44.73321" lon="6.99893">
        <ele>1851</ele>
        <time>2021-05-18T09:56:41+02:00</time>
      </trkpt>
      <trkpt lat="44.73366" lon="6.99836">
        <ele>1841</ele>
        <time>2021-05-18T09:56:46+02:00</time>
      </trkpt>
      <trkpt lat="44.73401" lon="6.998">
        <ele>1830</ele>
        <time>2021-05-18T09:56:51+02:00</time>
      </trkpt>
      <trkpt lat="44.73444" lon="6.99783">
        <ele>1820</ele>
        <time>2021-05-18T09:56:56+02:00</time>
      </trkpt>
      <trkpt lat="44.73477" lon="6.99783">
        <ele>1815</ele>
        <time>2021-05-18T09:57:01+02:00</time>
      </trkpt>
      <trkpt lat="44.7351" lon="6.9976">
        <ele>1809</ele>
        <time>2021-05-18T09:57:06+02:00</time>
      </trkpt>
      <trkpt lat="44.73557" lon="6.9973">
        <ele>1802</ele>
        <time>2021-05-18T09:57:11+02:00</time>
      </trkpt>
      <trkpt lat="44.73602" lon="6.9971">
        <ele>1793</ele>
        <time>2021-05-18T09:57:16+02:00</time>
      </trkpt>
      <trkpt lat="44.73623" lon="6.99667">
        <ele>1792</ele>
        <time>2021-05-18T09:57:21+02:00</time>
      </trkpt>
      <trkpt lat="44.73644" lon="6.99614">
        <ele>1793</ele>
        <time>2021-05-18T09:57:26+02:00</time>
      </trkpt>
      <trkpt lat="44.73694" lon="6.9958">
        <ele>1786</ele>
        <time>2021-05-18T09:57:31+02:00</time>
      </trkpt>
    </trkseg>
  </trk>
</gpx>